sensor_id;sensor_type;location;lat;lon;timestamp;P1;durP1;ratioP1;P2;durP2;ratioP2
55037;SDS011;40937;53.594;10.034;2022-12-07T00:00:16;14.00;;;12.70;;
55037;SDS011;40937;53.594;10.034;2022-12-07T00:02:42;13.52;;;12.20;;
55037;SDS011;40937;53.594;10.034;2022-12-07T00:05:09;15.05;;;13.77;;
55037;SDS011;40937;53.594;10.034;2022-12-07T00:07:35;14.15;;;12.85;;
55037;SDS011;40937;53.594;10.034;2022-12-07T00:10:02;14.48;;;13.27;;
55037;SDS011;40937;53.594;10.034;2022-12-07T00:12:29;15.60;;;14.20;;
55037;SDS011;40937;53.594;10.034;2022-12-07T00:14:56;14.77;;;13.25;;
55037;SDS011;40937;53.594;10.034;2022-12-07T00:17:23;14.48;;;13.18;;
55037;SDS011;40937;53.594;10.034;2022-12-07T00:19:49;14.20;;;12.98;;
55037;SDS011;40937;53.594;10.034;2022-12-07T00:22:16;14.07;;;13.00;;
55037;SDS011;40937;53.594;10.034;2022-12-07T00:24:42;14.57;;;13.38;;
55037;SDS011;40937;53.594;10.034;2022-12-07T00:27:09;14.73;;;13.43;;
55037;SDS011;40937;53.594;10.034;2022-12-07T00:29:35;14.80;;;13.32;;
55037;SDS011;40937;53.594;10.034;2022-12-07T00:32:04;14.35;;;13.15;;
55037;SDS011;40937;53.594;10.034;2022-12-07T00:34:31;14.80;;;13.40;;
55037;SDS011;40937;53.594;10.034;2022-12-07T00:36:57;13.88;;;12.52;;
55037;SDS011;40937;53.594;10.034;2022-12-07T00:39:23;15.02;;;13.57;;
55037;SDS011;40937;53.594;10.034;2022-12-07T00:41:50;14.63;;;13.32;;
55037;SDS011;40937;53.594;10.034;2022-12-07T00:44:16;14.38;;;12.93;;
55037;SDS011;40937;53.594;10.034;2022-12-07T00:46:43;14.00;;;12.50;;
55037;SDS011;40937;53.594;10.034;2022-12-07T00:49:11;14.35;;;13.15;;
55037;SDS011;40937;53.594;10.034;2022-12-07T00:51:38;15.20;;;13.90;;
55037;SDS011;40937;53.594;10.034;2022-12-07T00:54:04;13.20;;;12.00;;
55037;SDS011;40937;53.594;10.034;2022-12-07T00:56:31;13.85;;;12.65;;
55037;SDS011;40937;53.594;10.034;2022-12-07T00:58:58;14.18;;;12.85;;
55037;SDS011;40937;53.594;10.034;2022-12-07T01:01:26;14.23;;;13.07;;
55037;SDS011;40937;53.594;10.034;2022-12-07T01:03:53;12.40;;;11.40;;
55037;SDS011;40937;53.594;10.034;2022-12-07T01:06:21;12.50;;;11.52;;
55037;SDS011;40937;53.594;10.034;2022-12-07T01:08:48;12.40;;;11.38;;
55037;SDS011;40937;53.594;10.034;2022-12-07T01:11:15;12.35;;;11.20;;
55037;SDS011;40937;53.594;10.034;2022-12-07T01:13:42;12.70;;;11.57;;
55037;SDS011;40937;53.594;10.034;2022-12-07T01:16:10;12.90;;;11.57;;
55037;SDS011;40937;53.594;10.034;2022-12-07T01:18:37;12.48;;;11.20;;
55037;SDS011;40937;53.594;10.034;2022-12-07T01:21:04;11.57;;;10.40;;
55037;SDS011;40937;53.594;10.034;2022-12-07T01:23:33;11.00;;;10.10;;
55037;SDS011;40937;53.594;10.034;2022-12-07T01:26:00;11.98;;;10.85;;
55037;SDS011;40937;53.594;10.034;2022-12-07T01:28:27;11.40;;;10.35;;
55037;SDS011;40937;53.594;10.034;2022-12-07T01:30:54;11.35;;;10.27;;
55037;SDS011;40937;53.594;10.034;2022-12-07T01:33:21;10.82;;;9.82;;
55037;SDS011;40937;53.594;10.034;2022-12-07T01:35:47;10.95;;;10.05;;
55037;SDS011;40937;53.594;10.034;2022-12-07T01:38:14;11.13;;;10.02;;
55037;SDS011;40937;53.594;10.034;2022-12-07T01:40:42;10.95;;;10.02;;
55037;SDS011;40937;53.594;10.034;2022-12-07T01:43:10;12.27;;;9.93;;
55037;SDS011;40937;53.594;10.034;2022-12-07T01:45:40;10.20;;;9.32;;
55037;SDS011;40937;53.594;10.034;2022-12-07T01:48:07;10.93;;;10.05;;
55037;SDS011;40937;53.594;10.034;2022-12-07T01:50:35;11.23;;;9.80;;
55037;SDS011;40937;53.594;10.034;2022-12-07T01:53:02;10.93;;;9.60;;
55037;SDS011;40937;53.594;10.034;2022-12-07T01:55:29;10.55;;;9.65;;
55037;SDS011;40937;53.594;10.034;2022-12-07T01:57:57;12.18;;;11.00;;
55037;SDS011;40937;53.594;10.034;2022-12-07T02:00:24;10.48;;;9.57;;
55037;SDS011;40937;53.594;10.034;2022-12-07T02:02:51;10.15;;;9.27;;
55037;SDS011;40937;53.594;10.034;2022-12-07T02:05:19;10.73;;;8.77;;
55037;SDS011;40937;53.594;10.034;2022-12-07T02:07:46;9.55;;;8.65;;
55037;SDS011;40937;53.594;10.034;2022-12-07T02:10:14;9.60;;;8.60;;
55037;SDS011;40937;53.594;10.034;2022-12-07T02:12:40;9.10;;;8.13;;
55037;SDS011;40937;53.594;10.034;2022-12-07T02:15:09;9.02;;;8.07;;
55037;SDS011;40937;53.594;10.034;2022-12-07T02:17:37;10.77;;;7.78;;
55037;SDS011;40937;53.594;10.034;2022-12-07T02:20:18;9.55;;;8.57;;
55037;SDS011;40937;53.594;10.034;2022-12-07T02:22:54;8.30;;;7.65;;
55037;SDS011;40937;53.594;10.034;2022-12-07T02:25:29;10.50;;;7.75;;
55037;SDS011;40937;53.594;10.034;2022-12-07T02:27:59;7.85;;;7.35;;
55037;SDS011;40937;53.594;10.034;2022-12-07T02:30:30;9.27;;;7.15;;
55037;SDS011;40937;53.594;10.034;2022-12-07T02:32:57;7.72;;;6.97;;
55037;SDS011;40937;53.594;10.034;2022-12-07T02:35:26;7.95;;;7.05;;
55037;SDS011;40937;53.594;10.034;2022-12-07T02:37:57;6.43;;;5.93;;
55037;SDS011;40937;53.594;10.034;2022-12-07T02:40:26;9.00;;;6.13;;
55037;SDS011;40937;53.594;10.034;2022-12-07T02:42:55;8.48;;;6.05;;
55037;SDS011;40937;53.594;10.034;2022-12-07T02:45:23;7.72;;;5.90;;
55037;SDS011;40937;53.594;10.034;2022-12-07T02:47:53;7.93;;;6.05;;
55037;SDS011;40937;53.594;10.034;2022-12-07T02:50:21;6.45;;;4.95;;
55037;SDS011;40937;53.594;10.034;2022-12-07T02:52:48;7.57;;;4.95;;
55037;SDS011;40937;53.594;10.034;2022-12-07T02:55:15;5.57;;;5.00;;
55037;SDS011;40937;53.594;10.034;2022-12-07T02:57:47;6.45;;;4.43;;
55037;SDS011;40937;53.594;10.034;2022-12-07T03:00:19;6.15;;;4.35;;
55037;SDS011;40937;53.594;10.034;2022-12-07T03:02:50;4.88;;;4.43;;
55037;SDS011;40937;53.594;10.034;2022-12-07T03:07:48;6.00;;;4.35;;
55037;SDS011;40937;53.594;10.034;2022-12-07T03:10:18;4.47;;;3.60;;
55037;SDS011;40937;53.594;10.034;2022-12-07T03:12:48;4.50;;;3.67;;
55037;SDS011;40937;53.594;10.034;2022-12-07T03:15:18;5.28;;;4.57;;
55037;SDS011;40937;53.594;10.034;2022-12-07T03:17:46;4.53;;;3.72;;
55037;SDS011;40937;53.594;10.034;2022-12-07T03:20:14;4.40;;;3.85;;
55037;SDS011;40937;53.594;10.034;2022-12-07T03:22:41;6.25;;;2.70;;
55037;SDS011;40937;53.594;10.034;2022-12-07T03:25:11;3.78;;;3.13;;
55037;SDS011;40937;53.594;10.034;2022-12-07T03:27:39;4.85;;;2.67;;
55037;SDS011;40937;53.594;10.034;2022-12-07T03:30:07;3.17;;;2.70;;
55037;SDS011;40937;53.594;10.034;2022-12-07T03:32:35;5.70;;;2.78;;
55037;SDS011;40937;53.594;10.034;2022-12-07T03:35:04;2.60;;;2.40;;
55037;SDS011;40937;53.594;10.034;2022-12-07T03:37:32;2.38;;;2.15;;
55037;SDS011;40937;53.594;10.034;2022-12-07T03:40:02;5.90;;;2.40;;
55037;SDS011;40937;53.594;10.034;2022-12-07T03:42:31;3.55;;;2.13;;
55037;SDS011;40937;53.594;10.034;2022-12-07T03:44:58;3.92;;;2.22;;
55037;SDS011;40937;53.594;10.034;2022-12-07T03:47:26;1.73;;;1.63;;
55037;SDS011;40937;53.594;10.034;2022-12-07T03:49:55;2.20;;;2.00;;
55037;SDS011;40937;53.594;10.034;2022-12-07T03:52:25;3.92;;;1.85;;
55037;SDS011;40937;53.594;10.034;2022-12-07T03:54:55;2.55;;;1.52;;
55037;SDS011;40937;53.594;10.034;2022-12-07T03:57:22;2.10;;;1.77;;
55037;SDS011;40937;53.594;10.034;2022-12-07T03:59:51;2.80;;;1.75;;
55037;SDS011;40937;53.594;10.034;2022-12-07T04:02:19;3.17;;;1.80;;
55037;SDS011;40937;53.594;10.034;2022-12-07T04:04:46;3.38;;;1.50;;
55037;SDS011;40937;53.594;10.034;2022-12-07T04:07:13;2.58;;;1.65;;
55037;SDS011;40937;53.594;10.034;2022-12-07T04:09:39;3.35;;;1.73;;
55037;SDS011;40937;53.594;10.034;2022-12-07T04:12:06;2.08;;;1.75;;
55037;SDS011;40937;53.594;10.034;2022-12-07T04:14:32;3.03;;;1.92;;
55037;SDS011;40937;53.594;10.034;2022-12-07T04:17:00;2.45;;;2.13;;
55037;SDS011;40937;53.594;10.034;2022-12-07T04:19:27;5.30;;;1.67;;
55037;SDS011;40937;53.594;10.034;2022-12-07T04:21:54;7.03;;;2.80;;
55037;SDS011;40937;53.594;10.034;2022-12-07T04:24:21;2.83;;;2.05;;
55037;SDS011;40937;53.594;10.034;2022-12-07T04:26:47;3.13;;;1.80;;
55037;SDS011;40937;53.594;10.034;2022-12-07T04:29:14;4.93;;;1.90;;
55037;SDS011;40937;53.594;10.034;2022-12-07T04:31:41;4.93;;;2.20;;
55037;SDS011;40937;53.594;10.034;2022-12-07T04:34:09;3.15;;;1.90;;
55037;SDS011;40937;53.594;10.034;2022-12-07T04:36:36;3.00;;;1.67;;
55037;SDS011;40937;53.594;10.034;2022-12-07T04:39:03;4.00;;;2.35;;
55037;SDS011;40937;53.594;10.034;2022-12-07T04:41:30;3.60;;;2.00;;
55037;SDS011;40937;53.594;10.034;2022-12-07T04:43:57;3.20;;;2.60;;
55037;SDS011;40937;53.594;10.034;2022-12-07T04:46:24;4.18;;;2.30;;
55037;SDS011;40937;53.594;10.034;2022-12-07T04:48:51;3.67;;;2.28;;
55037;SDS011;40937;53.594;10.034;2022-12-07T04:51:20;3.38;;;2.33;;
55037;SDS011;40937;53.594;10.034;2022-12-07T04:53:46;5.82;;;2.60;;
55037;SDS011;40937;53.594;10.034;2022-12-07T04:56:13;6.05;;;2.50;;
55037;SDS011;40937;53.594;10.034;2022-12-07T04:58:39;4.72;;;2.63;;
55037;SDS011;40937;53.594;10.034;2022-12-07T05:01:06;4.35;;;2.50;;
55037;SDS011;40937;53.594;10.034;2022-12-07T05:03:32;2.50;;;2.30;;
55037;SDS011;40937;53.594;10.034;2022-12-07T05:05:59;4.90;;;2.42;;
55037;SDS011;40937;53.594;10.034;2022-12-07T05:08:27;3.38;;;2.88;;
55037;SDS011;40937;53.594;10.034;2022-12-07T05:10:53;2.88;;;2.42;;
55037;SDS011;40937;53.594;10.034;2022-12-07T05:13:20;2.88;;;2.58;;
55037;SDS011;40937;53.594;10.034;2022-12-07T05:15:46;4.70;;;2.78;;
55037;SDS011;40937;53.594;10.034;2022-12-07T05:18:13;3.88;;;2.58;;
55037;SDS011;40937;53.594;10.034;2022-12-07T05:20:39;2.38;;;2.28;;
55037;SDS011;40937;53.594;10.034;2022-12-07T05:23:06;3.72;;;3.03;;
55037;SDS011;40937;53.594;10.034;2022-12-07T05:25:34;5.60;;;3.40;;
55037;SDS011;40937;53.594;10.034;2022-12-07T05:28:01;3.70;;;2.75;;
55037;SDS011;40937;53.594;10.034;2022-12-07T05:30:27;4.63;;;3.00;;
55037;SDS011;40937;53.594;10.034;2022-12-07T05:32:54;3.10;;;2.80;;
55037;SDS011;40937;53.594;10.034;2022-12-07T05:35:21;2.85;;;2.65;;
55037;SDS011;40937;53.594;10.034;2022-12-07T05:37:47;5.72;;;3.05;;
55037;SDS011;40937;53.594;10.034;2022-12-07T05:40:14;10.13;;;2.67;;
55037;SDS011;40937;53.594;10.034;2022-12-07T05:42:42;5.15;;;2.70;;
55037;SDS011;40937;53.594;10.034;2022-12-07T05:45:09;5.43;;;2.78;;
55037;SDS011;40937;53.594;10.034;2022-12-07T05:47:36;3.40;;;3.13;;
55037;SDS011;40937;53.594;10.034;2022-12-07T05:50:03;4.25;;;3.22;;
55037;SDS011;40937;53.594;10.034;2022-12-07T05:52:30;3.97;;;3.20;;
55037;SDS011;40937;53.594;10.034;2022-12-07T05:54:56;3.42;;;3.03;;
55037;SDS011;40937;53.594;10.034;2022-12-07T05:57:23;3.45;;;3.00;;
55037;SDS011;40937;53.594;10.034;2022-12-07T05:59:50;5.28;;;3.35;;
55037;SDS011;40937;53.594;10.034;2022-12-07T06:02:16;3.97;;;2.92;;
55037;SDS011;40937;53.594;10.034;2022-12-07T06:04:43;3.08;;;2.85;;
55037;SDS011;40937;53.594;10.034;2022-12-07T06:07:11;4.45;;;3.08;;
55037;SDS011;40937;53.594;10.034;2022-12-07T06:09:38;3.95;;;3.55;;
55037;SDS011;40937;53.594;10.034;2022-12-07T06:12:05;4.03;;;3.55;;
55037;SDS011;40937;53.594;10.034;2022-12-07T06:14:50;3.58;;;3.28;;
55037;SDS011;40937;53.594;10.034;2022-12-07T06:17:17;3.40;;;3.10;;
55037;SDS011;40937;53.594;10.034;2022-12-07T06:19:43;5.97;;;3.72;;
55037;SDS011;40937;53.594;10.034;2022-12-07T06:22:10;3.80;;;3.45;;
55037;SDS011;40937;53.594;10.034;2022-12-07T06:24:37;4.05;;;3.35;;
55037;SDS011;40937;53.594;10.034;2022-12-07T06:27:04;3.45;;;2.95;;
55037;SDS011;40937;53.594;10.034;2022-12-07T06:29:31;4.70;;;2.83;;
55037;SDS011;40937;53.594;10.034;2022-12-07T06:31:59;3.50;;;3.25;;
55037;SDS011;40937;53.594;10.034;2022-12-07T06:34:25;4.13;;;3.00;;
55037;SDS011;40937;53.594;10.034;2022-12-07T06:36:52;4.72;;;3.45;;
55037;SDS011;40937;53.594;10.034;2022-12-07T06:39:21;4.85;;;3.15;;
55037;SDS011;40937;53.594;10.034;2022-12-07T06:41:47;3.55;;;2.72;;
55037;SDS011;40937;53.594;10.034;2022-12-07T06:44:14;4.35;;;3.35;;
55037;SDS011;40937;53.594;10.034;2022-12-07T06:46:40;4.47;;;2.88;;
55037;SDS011;40937;53.594;10.034;2022-12-07T06:49:08;3.35;;;2.80;;
55037;SDS011;40937;53.594;10.034;2022-12-07T06:51:35;4.90;;;2.97;;
55037;SDS011;40937;53.594;10.034;2022-12-07T06:54:06;4.25;;;2.97;;
55037;SDS011;40937;53.594;10.034;2022-12-07T06:56:32;7.72;;;3.72;;
55037;SDS011;40937;53.594;10.034;2022-12-07T06:58:59;4.05;;;3.00;;
55037;SDS011;40937;53.594;10.034;2022-12-07T07:01:25;4.50;;;3.30;;
55037;SDS011;40937;53.594;10.034;2022-12-07T07:03:52;4.88;;;3.20;;
55037;SDS011;40937;53.594;10.034;2022-12-07T07:06:20;6.10;;;3.10;;
55037;SDS011;40937;53.594;10.034;2022-12-07T07:08:46;8.35;;;3.67;;
55037;SDS011;40937;53.594;10.034;2022-12-07T07:11:13;5.47;;;2.88;;
55037;SDS011;40937;53.594;10.034;2022-12-07T07:13:39;4.72;;;2.78;;
55037;SDS011;40937;53.594;10.034;2022-12-07T07:16:06;5.50;;;2.97;;
55037;SDS011;40937;53.594;10.034;2022-12-07T07:18:33;4.03;;;2.55;;
55037;SDS011;40937;53.594;10.034;2022-12-07T07:20:59;2.53;;;2.28;;
55037;SDS011;40937;53.594;10.034;2022-12-07T07:23:27;5.70;;;2.85;;
55037;SDS011;40937;53.594;10.034;2022-12-07T07:25:54;7.97;;;2.70;;
55037;SDS011;40937;53.594;10.034;2022-12-07T07:28:20;2.65;;;2.17;;
55037;SDS011;40937;53.594;10.034;2022-12-07T07:30:47;3.00;;;2.70;;
55037;SDS011;40937;53.594;10.034;2022-12-07T07:33:14;9.77;;;2.90;;
55037;SDS011;40937;53.594;10.034;2022-12-07T07:35:40;4.35;;;2.42;;
55037;SDS011;40937;53.594;10.034;2022-12-07T07:38:07;6.05;;;4.20;;
55037;SDS011;40937;53.594;10.034;2022-12-07T07:40:35;8.98;;;2.90;;
55037;SDS011;40937;53.594;10.034;2022-12-07T07:43:01;4.05;;;2.63;;
55037;SDS011;40937;53.594;10.034;2022-12-07T07:45:28;7.43;;;2.63;;
55037;SDS011;40937;53.594;10.034;2022-12-07T07:47:54;7.40;;;2.80;;
55037;SDS011;40937;53.594;10.034;2022-12-07T07:50:21;3.17;;;2.00;;
55037;SDS011;40937;53.594;10.034;2022-12-07T07:52:48;5.43;;;2.45;;
55037;SDS011;40937;53.594;10.034;2022-12-07T07:55:15;4.97;;;1.55;;
55037;SDS011;40937;53.594;10.034;2022-12-07T07:57:42;4.70;;;2.05;;
55037;SDS011;40937;53.594;10.034;2022-12-07T08:00:10;5.22;;;1.80;;
55037;SDS011;40937;53.594;10.034;2022-12-07T08:02:39;11.50;;;2.22;;
55037;SDS011;40937;53.594;10.034;2022-12-07T08:05:06;4.72;;;2.17;;
55037;SDS011;40937;53.594;10.034;2022-12-07T08:07:33;7.25;;;2.08;;
55037;SDS011;40937;53.594;10.034;2022-12-07T08:09:59;5.63;;;2.15;;
55037;SDS011;40937;53.594;10.034;2022-12-07T08:12:26;5.20;;;1.60;;
55037;SDS011;40937;53.594;10.034;2022-12-07T08:14:54;5.35;;;1.95;;
55037;SDS011;40937;53.594;10.034;2022-12-07T08:17:20;4.07;;;1.77;;
55037;SDS011;40937;53.594;10.034;2022-12-07T08:19:46;6.53;;;1.73;;
55037;SDS011;40937;53.594;10.034;2022-12-07T08:22:13;4.70;;;1.15;;
55037;SDS011;40937;53.594;10.034;2022-12-07T08:24:39;7.30;;;2.08;;
55037;SDS011;40937;53.594;10.034;2022-12-07T08:27:06;8.38;;;1.70;;
55037;SDS011;40937;53.594;10.034;2022-12-07T08:29:32;7.88;;;2.58;;
55037;SDS011;40937;53.594;10.034;2022-12-07T08:32:00;4.78;;;2.38;;
55037;SDS011;40937;53.594;10.034;2022-12-07T08:34:27;5.80;;;2.33;;
55037;SDS011;40937;53.594;10.034;2022-12-07T08:36:53;7.05;;;2.03;;
55037;SDS011;40937;53.594;10.034;2022-12-07T08:39:20;4.40;;;1.75;;
55037;SDS011;40937;53.594;10.034;2022-12-07T08:41:46;4.43;;;1.60;;
55037;SDS011;40937;53.594;10.034;2022-12-07T08:44:13;4.55;;;1.55;;
55037;SDS011;40937;53.594;10.034;2022-12-07T08:46:39;7.65;;;2.55;;
55037;SDS011;40937;53.594;10.034;2022-12-07T08:49:10;4.97;;;1.85;;
55037;SDS011;40937;53.594;10.034;2022-12-07T08:51:38;4.93;;;1.83;;
55037;SDS011;40937;53.594;10.034;2022-12-07T08:54:05;7.30;;;2.40;;
55037;SDS011;40937;53.594;10.034;2022-12-07T08:56:33;6.22;;;1.90;;
55037;SDS011;40937;53.594;10.034;2022-12-07T08:58:59;6.25;;;1.63;;
55037;SDS011;40937;53.594;10.034;2022-12-07T09:01:26;3.53;;;1.60;;
55037;SDS011;40937;53.594;10.034;2022-12-07T09:03:52;3.33;;;1.67;;
55037;SDS011;40937;53.594;10.034;2022-12-07T09:06:20;6.88;;;2.13;;
55037;SDS011;40937;53.594;10.034;2022-12-07T09:08:47;8.38;;;2.30;;
55037;SDS011;40937;53.594;10.034;2022-12-07T09:11:15;6.70;;;1.80;;
55037;SDS011;40937;53.594;10.034;2022-12-07T09:13:42;5.38;;;2.03;;
55037;SDS011;40937;53.594;10.034;2022-12-07T09:16:08;8.65;;;2.13;;
55037;SDS011;40937;53.594;10.034;2022-12-07T09:18:35;2.03;;;1.35;;
55037;SDS011;40937;53.594;10.034;2022-12-07T09:21:03;3.95;;;1.70;;
55037;SDS011;40937;53.594;10.034;2022-12-07T09:23:31;6.53;;;2.13;;
55037;SDS011;40937;53.594;10.034;2022-12-07T09:25:58;2.75;;;1.80;;
55037;SDS011;40937;53.594;10.034;2022-12-07T09:28:25;4.97;;;1.90;;
55037;SDS011;40937;53.594;10.034;2022-12-07T09:30:51;8.38;;;3.20;;
55037;SDS011;40937;53.594;10.034;2022-12-07T09:33:18;3.85;;;2.30;;
55037;SDS011;40937;53.594;10.034;2022-12-07T09:35:45;9.75;;;2.45;;
55037;SDS011;40937;53.594;10.034;2022-12-07T09:38:11;4.57;;;1.90;;
55037;SDS011;40937;53.594;10.034;2022-12-07T09:40:39;5.13;;;2.00;;
55037;SDS011;40937;53.594;10.034;2022-12-07T09:43:11;3.90;;;1.73;;
55037;SDS011;40937;53.594;10.034;2022-12-07T09:45:38;4.82;;;1.67;;
55037;SDS011;40937;53.594;10.034;2022-12-07T09:48:05;5.75;;;2.08;;
55037;SDS011;40937;53.594;10.034;2022-12-07T09:50:31;6.88;;;1.95;;
55037;SDS011;40937;53.594;10.034;2022-12-07T09:53:03;8.35;;;1.90;;
55037;SDS011;40937;53.594;10.034;2022-12-07T09:55:33;5.85;;;1.98;;
55037;SDS011;40937;53.594;10.034;2022-12-07T09:58:01;4.88;;;1.80;;
55037;SDS011;40937;53.594;10.034;2022-12-07T10:00:29;6.03;;;1.63;;
55037;SDS011;40937;53.594;10.034;2022-12-07T10:02:56;7.50;;;2.15;;
55037;SDS011;40937;53.594;10.034;2022-12-07T10:05:24;6.95;;;1.63;;
55037;SDS011;40937;53.594;10.034;2022-12-07T10:07:51;9.65;;;2.35;;
55037;SDS011;40937;53.594;10.034;2022-12-07T10:10:19;7.07;;;1.70;;
55037;SDS011;40937;53.594;10.034;2022-12-07T10:12:53;6.93;;;2.10;;
55037;SDS011;40937;53.594;10.034;2022-12-07T10:15:21;7.35;;;1.92;;
55037;SDS011;40937;53.594;10.034;2022-12-07T10:17:48;7.82;;;2.20;;
55037;SDS011;40937;53.594;10.034;2022-12-07T10:20:17;3.45;;;1.67;;
55037;SDS011;40937;53.594;10.034;2022-12-07T10:22:54;7.05;;;3.20;;
55037;SDS011;40937;53.594;10.034;2022-12-07T10:25:21;9.80;;;2.40;;
55037;SDS011;40937;53.594;10.034;2022-12-07T10:27:57;7.32;;;2.00;;
55037;SDS011;40937;53.594;10.034;2022-12-07T10:30:25;5.05;;;1.73;;
55037;SDS011;40937;53.594;10.034;2022-12-07T10:32:52;5.93;;;2.17;;
55037;SDS011;40937;53.594;10.034;2022-12-07T10:35:20;6.00;;;2.03;;
55037;SDS011;40937;53.594;10.034;2022-12-07T10:37:47;5.50;;;2.20;;
55037;SDS011;40937;53.594;10.034;2022-12-07T10:40:27;4.63;;;2.42;;
55037;SDS011;40937;53.594;10.034;2022-12-07T10:43:01;3.80;;;1.85;;
55037;SDS011;40937;53.594;10.034;2022-12-07T10:45:29;6.07;;;1.73;;
55037;SDS011;40937;53.594;10.034;2022-12-07T10:47:58;5.85;;;1.75;;
55037;SDS011;40937;53.594;10.034;2022-12-07T10:50:29;4.97;;;1.92;;
55037;SDS011;40937;53.594;10.034;2022-12-07T10:53:10;4.53;;;1.80;;
55037;SDS011;40937;53.594;10.034;2022-12-07T10:55:44;6.97;;;1.98;;
55037;SDS011;40937;53.594;10.034;2022-12-07T10:58:20;4.38;;;1.95;;
55037;SDS011;40937;53.594;10.034;2022-12-07T11:00:54;5.93;;;3.33;;
55037;SDS011;40937;53.594;10.034;2022-12-07T11:06:06;10.55;;;2.25;;
55037;SDS011;40937;53.594;10.034;2022-12-07T11:08:39;4.88;;;2.22;;
55037;SDS011;40937;53.594;10.034;2022-12-07T11:11:12;6.78;;;1.83;;
55037;SDS011;40937;53.594;10.034;2022-12-07T11:13:40;8.10;;;2.05;;
55037;SDS011;40937;53.594;10.034;2022-12-07T11:16:16;8.45;;;2.08;;
55037;SDS011;40937;53.594;10.034;2022-12-07T11:18:48;3.03;;;2.05;;
55037;SDS011;40937;53.594;10.034;2022-12-07T11:21:19;5.30;;;1.95;;
55037;SDS011;40937;53.594;10.034;2022-12-07T11:23:48;6.85;;;1.95;;
55037;SDS011;40937;53.594;10.034;2022-12-07T11:26:18;5.47;;;2.10;;
55037;SDS011;40937;53.594;10.034;2022-12-07T11:28:58;5.45;;;1.50;;
55037;SDS011;40937;53.594;10.034;2022-12-07T11:31:28;7.43;;;1.98;;
55037;SDS011;40937;53.594;10.034;2022-12-07T11:33:59;7.60;;;3.55;;
55037;SDS011;40937;53.594;10.034;2022-12-07T11:36:35;6.50;;;3.30;;
55037;SDS011;40937;53.594;10.034;2022-12-07T11:39:03;4.43;;;2.45;;
55037;SDS011;40937;53.594;10.034;2022-12-07T11:41:31;5.93;;;1.83;;
55037;SDS011;40937;53.594;10.034;2022-12-07T11:44:00;5.97;;;2.35;;
55037;SDS011;40937;53.594;10.034;2022-12-07T11:46:33;8.77;;;1.70;;
55037;SDS011;40937;53.594;10.034;2022-12-07T11:49:03;8.35;;;2.15;;
55037;SDS011;40937;53.594;10.034;2022-12-07T11:51:34;3.78;;;1.90;;
55037;SDS011;40937;53.594;10.034;2022-12-07T11:54:03;9.05;;;1.75;;
55037;SDS011;40937;53.594;10.034;2022-12-07T11:56:31;5.97;;;1.67;;
55037;SDS011;40937;53.594;10.034;2022-12-07T11:59:02;5.07;;;2.70;;
55037;SDS011;40937;53.594;10.034;2022-12-07T12:01:39;4.65;;;2.15;;
55037;SDS011;40937;53.594;10.034;2022-12-07T12:04:13;5.97;;;1.70;;
55037;SDS011;40937;53.594;10.034;2022-12-07T12:06:44;7.53;;;2.17;;
55037;SDS011;40937;53.594;10.034;2022-12-07T12:09:11;3.63;;;1.48;;
55037;SDS011;40937;53.594;10.034;2022-12-07T12:11:43;7.82;;;1.75;;
55037;SDS011;40937;53.594;10.034;2022-12-07T12:14:17;4.53;;;1.85;;
55037;SDS011;40937;53.594;10.034;2022-12-07T12:19:34;7.20;;;2.40;;
55037;SDS011;40937;53.594;10.034;2022-12-07T12:22:05;9.70;;;1.90;;
55037;SDS011;40937;53.594;10.034;2022-12-07T12:24:32;8.68;;;2.78;;
55037;SDS011;40937;53.594;10.034;2022-12-07T12:27:02;9.23;;;2.38;;
55037;SDS011;40937;53.594;10.034;2022-12-07T12:29:31;4.72;;;1.63;;
55037;SDS011;40937;53.594;10.034;2022-12-07T12:32:06;7.45;;;2.28;;
55037;SDS011;40937;53.594;10.034;2022-12-07T12:34:39;6.82;;;2.17;;
55037;SDS011;40937;53.594;10.034;2022-12-07T12:37:13;7.45;;;2.13;;
55037;SDS011;40937;53.594;10.034;2022-12-07T12:40:24;8.98;;;1.95;;
55037;SDS011;40937;53.594;10.034;2022-12-07T12:45:30;7.03;;;1.70;;
55037;SDS011;40937;53.594;10.034;2022-12-07T12:47:57;11.88;;;2.30;;
55037;SDS011;40937;53.594;10.034;2022-12-07T12:50:27;10.95;;;2.03;;
55037;SDS011;40937;53.594;10.034;2022-12-07T12:53:03;7.95;;;2.38;;
55037;SDS011;40937;53.594;10.034;2022-12-07T12:55:49;6.13;;;2.55;;
55037;SDS011;40937;53.594;10.034;2022-12-07T12:58:35;10.45;;;2.78;;
55037;SDS011;40937;53.594;10.034;2022-12-07T13:03:53;5.85;;;2.90;;
55037;SDS011;40937;53.594;10.034;2022-12-07T13:06:31;4.13;;;2.08;;
55037;SDS011;40937;53.594;10.034;2022-12-07T13:09:00;6.75;;;2.03;;
55037;SDS011;40937;53.594;10.034;2022-12-07T13:11:28;5.68;;;1.90;;
55037;SDS011;40937;53.594;10.034;2022-12-07T13:16:38;5.05;;;1.98;;
55037;SDS011;40937;53.594;10.034;2022-12-07T13:21:52;7.35;;;2.20;;
55037;SDS011;40937;53.594;10.034;2022-12-07T13:24:18;4.25;;;1.17;;
55037;SDS011;40937;53.594;10.034;2022-12-07T13:26:45;7.07;;;2.05;;
55037;SDS011;40937;53.594;10.034;2022-12-07T13:29:12;4.68;;;1.50;;
55037;SDS011;40937;53.594;10.034;2022-12-07T13:31:40;6.20;;;1.73;;
55037;SDS011;40937;53.594;10.034;2022-12-07T13:36:48;4.60;;;1.65;;
55037;SDS011;40937;53.594;10.034;2022-12-07T13:39:19;2.95;;;1.38;;
55037;SDS011;40937;53.594;10.034;2022-12-07T13:41:49;8.18;;;1.80;;
55037;SDS011;40937;53.594;10.034;2022-12-07T13:44:16;6.65;;;2.35;;
55037;SDS011;40937;53.594;10.034;2022-12-07T13:46:44;5.70;;;1.98;;
55037;SDS011;40937;53.594;10.034;2022-12-07T13:49:17;4.65;;;1.65;;
55037;SDS011;40937;53.594;10.034;2022-12-07T13:51:44;5.70;;;2.45;;
55037;SDS011;40937;53.594;10.034;2022-12-07T13:54:12;6.28;;;1.98;;
55037;SDS011;40937;53.594;10.034;2022-12-07T13:56:40;9.45;;;2.13;;
55037;SDS011;40937;53.594;10.034;2022-12-07T13:59:10;8.45;;;1.52;;
55037;SDS011;40937;53.594;10.034;2022-12-07T14:01:38;4.55;;;1.77;;
55037;SDS011;40937;53.594;10.034;2022-12-07T14:04:18;7.38;;;2.20;;
55037;SDS011;40937;53.594;10.034;2022-12-07T14:06:48;8.55;;;1.38;;
55037;SDS011;40937;53.594;10.034;2022-12-07T14:09:19;7.30;;;2.05;;
55037;SDS011;40937;53.594;10.034;2022-12-07T14:11:49;4.55;;;1.90;;
55037;SDS011;40937;53.594;10.034;2022-12-07T14:14:17;6.88;;;1.63;;
55037;SDS011;40937;53.594;10.034;2022-12-07T14:16:54;6.53;;;1.95;;
55037;SDS011;40937;53.594;10.034;2022-12-07T14:22:06;3.10;;;1.40;;
55037;SDS011;40937;53.594;10.034;2022-12-07T14:24:40;3.40;;;1.70;;
55037;SDS011;40937;53.594;10.034;2022-12-07T14:27:16;4.95;;;1.75;;
55037;SDS011;40937;53.594;10.034;2022-12-07T14:29:43;8.40;;;1.80;;
55037;SDS011;40937;53.594;10.034;2022-12-07T14:32:19;6.55;;;1.90;;
55037;SDS011;40937;53.594;10.034;2022-12-07T14:34:54;4.57;;;1.70;;
55037;SDS011;40937;53.594;10.034;2022-12-07T14:37:21;4.25;;;1.60;;
55037;SDS011;40937;53.594;10.034;2022-12-07T14:39:47;7.65;;;1.65;;
55037;SDS011;40937;53.594;10.034;2022-12-07T14:42:15;5.20;;;1.60;;
55037;SDS011;40937;53.594;10.034;2022-12-07T14:44:42;2.47;;;1.15;;
55037;SDS011;40937;53.594;10.034;2022-12-07T14:47:08;8.63;;;1.80;;
55037;SDS011;40937;53.594;10.034;2022-12-07T14:49:35;3.70;;;1.40;;
55037;SDS011;40937;53.594;10.034;2022-12-07T14:52:02;4.53;;;1.20;;
55037;SDS011;40937;53.594;10.034;2022-12-07T14:54:30;5.65;;;1.52;;
55037;SDS011;40937;53.594;10.034;2022-12-07T14:56:57;4.75;;;1.23;;
55037;SDS011;40937;53.594;10.034;2022-12-07T14:59:25;4.72;;;1.60;;
55037;SDS011;40937;53.594;10.034;2022-12-07T15:01:51;5.45;;;1.92;;